Map

Track Data

SID SEASON NUMBER BASIN SUBBASIN NAME ISO_TIME NATURE LAT LON WMO_WIND WMO_PRES WMO_AGENCY TRACK_TYPE DIST2LAND LANDFALL IFLAG USA_AGENCY USA_ATCF_ID USA_LAT USA_LON USA_RECORD USA_STATUS USA_WIND USA_PRES USA_SSHS USA_R34_NE USA_R34_SE USA_R34_SW USA_R34_NW USA_R50_NE USA_R50_SE USA_R50_SW USA_R50_NW USA_R64_NE USA_R64_SE USA_R64_SW USA_R64_NW USA_POCI USA_ROCI USA_RMW USA_EYE TOKYO_LAT TOKYO_LON TOKYO_GRADE TOKYO_WIND TOKYO_PRES TOKYO_R50_DIR TOKYO_R50_LONG TOKYO_R50_SHORT TOKYO_R30_DIR TOKYO_R30_LONG TOKYO_R30_SHORT TOKYO_LAND CMA_LAT CMA_LON CMA_CAT CMA_WIND CMA_PRES HKO_LAT HKO_LON HKO_CAT HKO_WIND HKO_PRES NEWDELHI_LAT NEWDELHI_LON NEWDELHI_GRADE NEWDELHI_WIND NEWDELHI_PRES NEWDELHI_CI NEWDELHI_DP NEWDELHI_POCI REUNION_LAT REUNION_LON REUNION_TYPE REUNION_WIND REUNION_PRES REUNION_TNUM REUNION_CI REUNION_RMW REUNION_R34_NE REUNION_R34_SE REUNION_R34_SW REUNION_R34_NW REUNION_R50_NE REUNION_R50_SE REUNION_R50_SW REUNION_R50_NW REUNION_R64_NE REUNION_R64_SE REUNION_R64_SW REUNION_R64_NW BOM_LAT BOM_LON BOM_TYPE BOM_WIND BOM_PRES BOM_TNUM BOM_CI BOM_RMW BOM_R34_NE BOM_R34_SE BOM_R34_SW BOM_R34_NW BOM_R50_NE BOM_R50_SE BOM_R50_SW BOM_R50_NW BOM_R64_NE BOM_R64_SE BOM_R64_SW BOM_R64_NW BOM_ROCI BOM_POCI BOM_EYE BOM_POS_METHOD BOM_PRES_METHOD NADI_LAT NADI_LON NADI_CAT NADI_WIND NADI_PRES WELLINGTON_LAT WELLINGTON_LON WELLINGTON_WIND WELLINGTON_PRES DS824_LAT DS824_LON DS824_STAGE DS824_WIND DS824_PRES TD9636_LAT TD9636_LON TD9636_STAGE TD9636_WIND TD9636_PRES TD9635_LAT TD9635_LON TD9635_WIND TD9635_PRES TD9635_ROCI NEUMANN_LAT NEUMANN_LON NEUMANN_CLASS NEUMANN_WIND NEUMANN_PRES MLC_LAT MLC_LON MLC_CLASS MLC_WIND MLC_PRES USA_GUST BOM_GUST BOM_GUST_PER REUNION_GUST REUNION_GUST_PER USA_SEAHGT USA_SEARAD_NE USA_SEARAD_SE USA_SEARAD_SW USA_SEARAD_NW STORM_SPEED STORM_DIR
1923258N15086 1923 62 NI BB NOT_NAMED 1923-09-15 00:00:00 TS 15.0000 86.0000 main 417 401 _________O____ -1 15.0000 86.0000 TC 30 3 325
1923258N15086 1923 62 NI BB NOT_NAMED 1923-09-15 03:00:00 TS 15.1333 85.9034 main 401 378 _________PO___ -1 15.2000 85.8550 TC 30 15.0000 86.0000 1 4 323
1923258N15086 1923 62 NI BB NOT_NAMED 1923-09-15 06:00:00 TS 15.3201 85.7501 main 378 347 _________OP___ -1 15.4000 85.7000 TC 30 15.2002 85.8254 1 5 321
1923258N15086 1923 62 NI BB NOT_NAMED 1923-09-15 09:00:00 TS 15.5144 85.5888 main 347 324 _________PP___ -1 15.6000 85.5350 TC 30 15.4002 85.6604 1 5 323
1923258N15086 1923 62 NI BB NOT_NAMED 1923-09-15 12:00:00 TS 15.7001 85.4576 main 324 300 _________OP___ -1 15.8000 85.4000 TC 30 15.6001 85.5153 1 4 331
1923258N15086 1923 62 NI BB NOT_NAMED 1923-09-15 15:00:00 TS 15.9000 85.3712 main 300 277 _________PO___ -1 16.0000 85.3424 TC 30 15.8000 85.4000 1 4 340
1923258N15086 1923 62 NI BB NOT_NAMED 1923-09-15 18:00:00 TS 16.0999 85.3097 main 277 252 _________OP___ -1 16.2000 85.3000 TC 30 15.9999 85.3194 1 4 342
1923258N15086 1923 62 NI BB NOT_NAMED 1923-09-15 21:00:00 TS 16.2999 85.2361 main 252 232 _________PP___ -1 16.4000 85.2150 TC 30 16.1998 85.2571 1 4 339
1923258N15086 1923 62 NI BB NOT_NAMED 1923-09-16 00:00:00 TS 16.4999 85.1456 main 227 202 _________OP___ -1 16.6000 85.1000 TC 30 16.3999 85.1913 1 4 334
1923258N15086 1923 62 NI BB NOT_NAMED 1923-09-16 03:00:00 TS 16.7000 85.0325 main 202 178 _________PO___ -1 16.8000 84.9650 TC 30 16.6000 85.1000 1 5 327
1923258N15086 1923 62 NI BB NOT_NAMED 1923-09-16 06:00:00 TS 16.9021 84.8729 main 178 148 _________OP___ -1 17.0000 84.8000 TC 30 16.8042 84.9457 1 5 320
1923258N15086 1923 62 NI BB NOT_NAMED 1923-09-16 09:00:00 TS 17.1038 84.6788 main 148 119 _________PP___ -1 17.2000 84.5925 TC 30 17.0076 84.7652 1 5 318
1923258N15086 1923 62 NI BB NOT_NAMED 1923-09-16 12:00:00 TS 17.3036 84.4885 main 119 94 _________OP___ -1 17.4000 84.4000 TC 30 17.2073 84.5770 1 5 322
1923258N15086 1923 62 NI BB NOT_NAMED 1923-09-16 15:00:00 TS 17.5037 84.3462 main 89 64 _________PO___ -1 17.6075 84.2924 TC 30 17.4000 84.4000 1 5 328
1923258N15086 1923 62 NI BB NOT_NAMED 1923-09-16 18:00:00 TS 17.6890 84.2403 main 64 49 _________OP___ -1 17.8000 84.2000 TC 30 17.5779 84.2806 1 4 328
1923258N15086 1923 62 NI BB NOT_NAMED 1923-09-16 21:00:00 TS 17.8498 84.1222 main 49 24 _________PP___ -1 17.9500 84.0724 TC 30 17.7497 84.1720 1 4 322
1923258N15086 1923 62 NI BB NOT_NAMED 1923-09-17 00:00:00 TS 18.0108 83.9762 main 24 0 _________OP___ -1 18.1000 83.9000 TC 30 17.9216 84.0524 1 5 317
1923258N15086 1923 62 NI BB NOT_NAMED 1923-09-17 03:00:00 TS 18.1963 83.7825 main 0 0 _________PO___ -1 18.2925 83.6650 TC 30 18.1000 83.9000 1 6 313
1923258N15086 1923 62 NI BB NOT_NAMED 1923-09-17 06:00:00 TS 18.4026 83.5370 main 0 0 _________OP___ -1 18.5000 83.4000 TC 30 18.3052 83.6740 1 6 311
1923258N15086 1923 62 NI BB NOT_NAMED 1923-09-17 09:00:00 TS 18.6114 83.2752 main 0 0 _________PP___ -1 18.7075 83.1350 TC 30 18.5153 83.4154 1 6 310
1923258N15086 1923 62 NI BB NOT_NAMED 1923-09-17 12:00:00 TS 18.8088 83.0245 main 0 0 _________OP___ -1 18.9000 82.9000 TC 30 18.7177 83.1490 1 6 311
1923258N15086 1923 62 NI BB NOT_NAMED 1923-09-17 15:00:00 TS 18.9825 82.8212 main 0 0 _________PO___ -1 19.0649 82.7424 TC 30 18.9000 82.9000 1 5 314
1923258N15086 1923 62 NI BB NOT_NAMED 1923-09-17 18:00:00 TS 19.1229 82.6778 main 0 0 _________OP___ -1 19.2000 82.6000 TC 30 19.0459 82.7556 1 4 313
1923258N15086 1923 62 NI BB NOT_NAMED 1923-09-17 21:00:00 TS 19.2318 82.5382 main 0 0 _________PP___ -1 19.2923 82.4523 TC 30 19.1714 82.6241 1 4 304
1923258N15086 1923 62 NI BB NOT_NAMED 1923-09-18 00:00:00 TS 19.3431 82.3278 main 0 0 _________OP___ -1 19.4000 82.2000 TC 30 19.2863 82.4556 1 6 297
1923258N15086 1923 62 NI BB NOT_NAMED 1923-09-18 03:00:00 TS 19.5038 81.9727 main 0 0 _________PO___ -1 19.6077 81.7453 TC 30 19.4000 82.2000 1 8 293
1923258N15086 1923 62 NI BB NOT_NAMED 1923-09-18 06:00:00 TS 19.6728 81.5031 main 0 0 _________OP___ -1 19.8000 81.2000 TC 30 19.5456 81.8061 1 9 287
1923258N15086 1923 62 NI BB NOT_NAMED 1923-09-18 09:00:00 TS 19.7838 81.0178 main 0 0 _________PP___ -1 19.8797 80.7148 TC 30 19.6878 81.3207 1 10 281
1923258N15086 1923 62 NI BB NOT_NAMED 1923-09-18 12:00:00 TS 19.8555 80.4874 main 0 0 _________OP___ -1 19.9000 80.2000 TC 30 19.8110 80.7749 1 11 277
1923258N15086 1923 62 NI BB NOT_NAMED 1923-09-18 15:00:00 TS 19.9038 79.9037 main 0 0 _________PO___ -1 19.9075 79.6074 TC 30 19.9000 80.2000 1 11 273
1923258N15086 1923 62 NI BB NOT_NAMED 1923-09-18 18:00:00 TS 19.9182 79.3068 main 0 0 _________OP___ -1 19.9000 79.0000 TC 30 19.9364 79.6135 1 11 271
1923258N15086 1923 62 NI BB NOT_NAMED 1923-09-18 21:00:00 TS 19.9191 78.7159 main 0 0 _________PP___ -1 19.8999 78.4200 TC 30 19.9382 79.0118 1 11 270
1923258N15086 1923 62 NI BB NOT_NAMED 1923-09-19 00:00:00 TS 19.9104 78.1646 main 0 0 _________OP___ -1 19.9000 77.9000 TC 30 19.9208 78.4292 1 10 269
1923258N15086 1923 62 NI AS NOT_NAMED 1923-09-19 03:00:00 TS 19.8999 77.6850 main 0 0 _________PO___ -1 19.8998 77.4700 TC 30 19.9000 77.9000 1 8 269
1923258N15086 1923 62 NI AS NOT_NAMED 1923-09-19 06:00:00 TS 19.8955 77.2837 main 0 0 _________OP___ -1 19.9000 77.1000 TC 30 19.8909 77.4674 1 7 269
1923258N15086 1923 62 NI AS NOT_NAMED 1923-09-19 09:00:00 TS 19.8918 76.9199 main 0 0 _________PP___ -1 19.8998 76.7500 TC 30 19.8838 77.0899 1 7 270
1923258N15086 1923 62 NI AS NOT_NAMED 1923-09-19 12:00:00 TS 19.8924 76.5712 main 0 0 _________OP___ -1 19.9000 76.4000 TC 30 19.8848 76.7424 1 7 270
1923258N15086 1923 62 NI AS NOT_NAMED 1923-09-19 15:00:00 TS 19.8925 76.2000 main 0 0 _________PO___ -1 19.8850 75.9999 TC 30 19.9000 76.4000 1 7 269
1923258N15086 1923 62 NI AS NOT_NAMED 1923-09-19 18:00:00 TS 19.8835 75.7859 main 0 0 _________OP___ -1 19.9000 75.6000 TC 30 19.8669 75.9719 1 8 270
1923258N15086 1923 62 NI AS NOT_NAMED 1923-09-19 21:00:00 TS 19.8990 75.3860 main 0 0 _________PP___ -1 19.9400 75.2199 TC 30 19.8581 75.5521 1 7 280
1923258N15086 1923 62 NI AS NOT_NAMED 1923-09-20 00:00:00 TS 20.0100 75.0407 main 0 0 _________OP___ -1 20.1000 74.9000 TC 30 19.9201 75.1814 1 7 302
1923258N15086 1923 62 NI AS NOT_NAMED 1923-09-20 03:00:00 TS 20.2662 74.7664 main 0 0 _________PO___ -1 20.4325 74.6329 TC 30 20.1000 74.9000 1 8 329
1923258N15086 1923 62 NI AS NOT_NAMED 1923-09-20 06:00:00 TS 20.6843 74.6103 main 0 0 _________OP___ -1 20.9000 74.5000 TC 30 20.4685 74.7206 1 10 350
1923258N15086 1923 62 NI AS NOT_NAMED 1923-09-20 09:00:00 TS 21.2009 74.5914 main 0 0 _________PP___ -1 21.4500 74.5471 TC 30 20.9519 74.6357 1 11 3
1923258N15086 1923 62 NI AS NOT_NAMED 1923-09-20 12:00:00 TS 21.7422 74.6665 main 0 0 _________OP___ -1 22.0000 74.7000 TC 30 21.4843 74.6330 1 10 9
1923258N15086 1923 62 NI AS NOT_NAMED 1923-09-20 15:00:00 TS 22.2150 74.7675 main 0 0 _________PO___ -1 22.4300 74.8351 TC 30 22.0000 74.7000 1 9 14
1923258N15086 1923 62 NI AS NOT_NAMED 1923-09-20 18:00:00 TS 22.6284 74.9127 main 0 0 _________OP___ -1 22.8000 75.0000 TC 30 22.4567 74.8253 1 9 21
1923258N15086 1923 62 NI AS NOT_NAMED 1923-09-20 21:00:00 TS 23.0402 75.1091 main 0 0 _________PP___ -1 23.2025 75.2073 TC 30 22.8778 75.0108 1 8 26
1923258N15086 1923 62 NI AS NOT_NAMED 1923-09-21 00:00:00 TS 23.3674 75.3080 main 0 0 _________OP___ -1 23.5000 75.4000 TC 30 23.2349 75.2161 1 6 32
1923258N15086 1923 62 NI AS NOT_NAMED 1923-09-21 03:00:00 TS 23.5475 75.4613 main 0 0 _________PO___ -1 23.5950 75.5227 TC 30 23.5000 75.4000 1 3 42
1923258N15086 1923 62 NI AS NOT_NAMED 1923-09-21 06:00:00 TS 23.6196 75.5562 main 0 0 _________OP___ -1 23.6000 75.6000 TC 30 23.6393 75.5125 1 2 52
1923258N15086 1923 62 NI AS NOT_NAMED 1923-09-21 09:00:00 TS 23.6662 75.6304 main 0 0 _________PP___ -1 23.6425 75.6650 TC 30 23.6899 75.5957 1 1 55
1923258N15086 1923 62 NI AS NOT_NAMED 1923-09-21 12:00:00 TS 23.6978 75.6780 main 0 0 _________OP___ -1 23.7000 75.7000 TC 30 23.6955 75.6560 1 1 37
1923258N15086 1923 62 NI AS NOT_NAMED 1923-09-21 15:00:00 TS 23.7500 75.7000 main 0 0 _________PO___ -1 23.8000 75.7000 TC 30 23.7000 75.7000 1 1 18
1923258N15086 1923 62 NI AS NOT_NAMED 1923-09-21 18:00:00 TS 23.8278 75.7116 main 0 0 _________OP___ -1 23.9000 75.7000 TC 30 23.7556 75.7233 1 1 17
1923258N15086 1923 62 NI AS NOT_NAMED 1923-09-21 21:00:00 TS 23.8812 75.7351 main 0 0 _________PP___ -1 23.9425 75.7350 TC 30 23.8199 75.7353 1 1 22
1923258N15086 1923 62 NI AS NOT_NAMED 1923-09-22 00:00:00 TS 23.9496 75.7773 main 0 0 _________OP___ -1 24.0000 75.8000 TC 30 23.8993 75.7546 1 2 27
1923258N15086 1923 62 NI AS NOT_NAMED 1923-09-22 03:00:00 TS 24.0675 75.8425 main 0 0 _________PO___ -1 24.1350 75.8850 TC 30 24.0000 75.8000 1 3 31
1923258N15086 1923 62 NI AS NOT_NAMED 1923-09-22 06:00:00 TS 24.2142 75.9481 main 0 0 _________OP___ -1 24.3000 76.0000 TC 30 24.1285 75.8961 1 4 37
1923258N15086 1923 62 NI AS NOT_NAMED 1923-09-22 09:00:00 TS 24.3638 76.0849 main 0 0 _________PP___ -1 24.4500 76.1500 TC 30 24.2776 76.0199 1 4 40
1923258N15086 1923 62 NI AS NOT_NAMED 1923-09-22 12:00:00 TS 24.5189 76.2293 main 0 0 _________OP___ -1 24.6000 76.3000 TC 30 24.4379 76.1587 1 4 38
1923258N15086 1923 62 NI AS NOT_NAMED 1923-09-22 15:00:00 TS 24.6750 76.3500 main 0 0 _________PO___ -1 24.7500 76.4001 TC 30 24.6000 76.3000 1 4 33
1923258N15086 1923 62 NI AS NOT_NAMED 1923-09-22 18:00:00 TS 24.8208 76.4465 main 0 0 _________OP___ -1 24.9000 76.5000 TC 30 24.7416 76.3930 1 3 33
1923258N15086 1923 62 NI AS NOT_NAMED 1923-09-22 21:00:00 TS 24.9597 76.5555 main 0 0 _________PP___ -1 25.0349 76.6202 TC 30 24.8845 76.4908 1 4 39
1923258N15086 1923 62 NI AS NOT_NAMED 1923-09-23 00:00:00 TS 25.1176 76.7091 main 0 0 _________OP___ -1 25.2000 76.8000 TC 30 25.0352 76.6181 1 5 43
1923258N15086 1923 62 NI AS NOT_NAMED 1923-09-23 03:00:00 TS 25.3250 76.9349 main 0 0 _________PO___ -1 25.4500 77.0698 TC 30 25.2000 76.8000 1 6 48
1923258N15086 1923 62 NI AS NOT_NAMED 1923-09-23 06:00:00 TS 25.5450 77.2336 main 0 0 _________OP___ -1 25.7000 77.4000 TC 30 25.3899 77.0672 1 7 55
1923258N15086 1923 62 NI AS NOT_NAMED 1923-09-23 09:00:00 TS 25.7289 77.5661 main 0 0 _________PP___ -1 25.8650 77.7427 TC 30 25.5928 77.3896 1 7 60
1923258N15086 1923 62 NI AS NOT_NAMED 1923-09-23 12:00:00 TS 25.8996 77.9211 main 0 0 _________OP___ -1 26.0000 78.1000 TC 30 25.7993 77.7423 1 7 62
1923258N15086 1923 62 NI BB NOT_NAMED 1923-09-23 15:00:00 TS 26.0712 78.2788 main 0 0 _________PO___ -1 26.1425 78.4576 TC 30 26.0000 78.1000 1 7 61
1923258N15086 1923 62 NI BB NOT_NAMED 1923-09-23 18:00:00 TS 26.2472 78.6246 main 0 0 _________OP___ -1 26.3000 78.8000 TC 30 26.1945 78.4493 1 7 59
1923258N15086 1923 62 NI BB NOT_NAMED 1923-09-23 21:00:00 TS 26.4438 78.9586 main 0 0 _________PP___ -1 26.5075 79.1224 TC 30 26.3802 78.7948 1 7 56
1923258N15086 1923 62 NI BB NOT_NAMED 1923-09-24 00:00:00 TS 26.6254 79.2590 main 0 0 _________OP___ -1 26.7000 79.4000 TC 30 26.5508 79.1180 1 6 58
1923258N15086 1923 62 NI BB NOT_NAMED 1923-09-24 03:00:00 TS 26.7575 79.5113 main 0 0 _________PO___ -1 26.8149 79.6227 TC 30 26.7000 79.4000 1 5 60
1923258N15086 1923 62 NI BB NOT_NAMED 1923-09-24 06:00:00 TS 26.8524 79.7014 main 0 0 _________OP___ -1 26.9000 79.8000 TC 30 26.8047 79.6028 1 4 59
1923258N15086 1923 62 NI BB NOT_NAMED 1923-09-24 09:00:00 TS 26.9383 79.8507 main 0 0 _________PP___ -1 26.9849 79.9352 TC 30 26.8917 79.7662 1 3 56
1923258N15086 1923 62 NI BB NOT_NAMED 1923-09-24 12:00:00 TS 27.0414 80.0108 main 0 0 _________OP___ -1 27.1000 80.1000 TC 30 26.9829 79.9215 1 4 54
1923258N15086 1923 62 NI BB NOT_NAMED 1923-09-24 15:00:00 TS 27.1926 80.2424 main 0 0 _________PO___ -1 27.2851 80.3849 TC 30 27.1000 80.1000 1 5 53
1923258N15086 1923 62 NI BB NOT_NAMED 1923-09-24 18:00:00 TS 27.3623 80.4862 main 0 0 _________OP___ -1 27.5000 80.7000 TC 30 27.2590 80.3258 1 6 51
1923258N15086 1923 62 NI BB NOT_NAMED 1923-09-24 21:00:00 TS 27.5541 80.7430 main 0 0 _________PP___ -1 27.7050 80.9675 TC 30 27.4535 80.5933 1 6 49
1923258N15086 1923 62 NI BB NOT_NAMED 1923-09-25 00:00:00 TS 27.7474 80.9928 main 0 0 _________OP___ -1 27.9000 81.2000 TC 30 27.6711 80.8892 1 5 49
1923258N15086 1923 62 NI BB NOT_NAMED 1923-09-25 03:00:00 NR 27.9000 81.2000 main 0 __________O___ -1 TC 27.9000 81.2000 1 5 50

About IBTrACS Database

This database is a web-friendly format of International Best Track Archive for Climate Stewardship (IBTrACS), a global best track data archive curated by NOAA dating back to 1842.

Updated: 2021-11-26